Aviation Digital Data Service (ADDS)

Output produced by METARs form (0758 UTC 03 August 2021)
found at http://www.aviationweather.gov/metar/data/
 
KFIG 030754Z AUTO 34004KT 10SM CLR 10/09 A3015 RMK AO2 SLP205 T01000089
KFIG 030654Z AUTO 35003KT 10SM CLR 10/09 A3016 RMK AO2 SLP208 T01000089
KFIG 030554Z AUTO 35004KT 10SM CLR 11/10 A3016 RMK AO2 SLP208 T01110100 10211 20111 50003
KFIG 030454Z AUTO 00000KT 10SM CLR 13/11 A3016 RMK AO2 SLP207 T01330106 402440117
KFIG 030354Z AUTO 00000KT 10SM CLR 14/11 A3016 RMK AO2 SLP208 T01390106
KFIG 030254Z AUTO 33005KT 10SM SCT065 15/11 A3015 RMK AO2 SLP205 T01500111 53014
KFIG 030154Z AUTO 34004KT 10SM SCT065 16/12 A3013 RMK AO2 SLP199 T01560122
KFIG 030054Z AUTO 35005KT 10SM FEW070 17/13 A3011 RMK AO2 SLP193 T01720133
KFIG 022354Z AUTO 00000KT 10SM OVC070 21/13 A3010 RMK AO2 SLP189 T02110128 10244 20206 53004
KFIG 022254Z AUTO 35004KT 10SM BKN080 21/11 A3009 RMK AO2 SLP186 T02110111
KFIG 022154Z AUTO 32007KT 10SM FEW080 24/09 A3009 RMK AO2 SLP184 T02390089
KFIG 022054Z AUTO 34006KT 10SM SCT080 24/08 A3009 RMK AO2 SLP184 T02390078 55002
KFIG 021954Z AUTO 33009G17KT 10SM CLR 24/08 A3009 RMK AO2 SLP182 T02390083
KFIG 021854Z AUTO 31007KT 10SM BKN070 24/09 A3010 RMK AO2 SLP186 T02390089
KFIG 021754Z AUTO VRB05KT 10SM FEW060 23/09 A3010 RMK AO2 SLP186 T02330089 10233 20144 58005
KFIG 021654Z AUTO 01006G15KT 10SM SCT050 SCT060 23/10 A3011 RMK AO2 SLP189 T02280100 $
KFIG 021554Z AUTO 32007KT 10SM BKN041 22/11 A3011 RMK AO2 SLP192 T02170111 $
KFIG 021454Z AUTO 02006KT 19/12 A3011 RMK AO2 SLP194 T01940122 51012 PWINO $
KFIG 021414Z AUTO 01009KT 10SM SCT024 18/13 A3010 RMK AO2 T01830128
KFIG 021354Z AUTO VRB05KT 10SM BKN021 BKN026 18/13 A3011 RMK AO2 SLP191 T01830128
KFIG 021254Z AUTO 34004KT 10SM OVC017 16/13 A3010 RMK AO2 SLP189 T01560128
KFIG 021220Z AUTO 34005KT 10SM BKN017 14/13 A3009 RMK AO2 T01440128
KFIG 021204Z AUTO 35005KT 10SM FEW014 14/13 A3008 RMK AO2 T01440128
KFIG 021154Z AUTO 34004KT 10SM SCT014 BKN019 14/13 A3008 RMK AO2 SLP182 70018 T01440128 10144 20117 53021
KFIG 021143Z AUTO 31005KT 10SM BKN019 14/13 A3008 RMK AO2 T01440133
KFIG 021054Z AUTO 00000KT 10SM CLR 13/12 A3005 RMK AO2 SLP175 T01280122
KFIG 021016Z AUTO 30004KT 10SM SCT016 13/12 A3004 RMK AO2 T01330122
KFIG 021005Z AUTO 32005KT 10SM FEW010 BKN016 13/12 A3003 RMK AO2 T01330122
KFIG 020954Z AUTO 33003KT 10SM BKN013 BKN017 13/12 A3003 RMK AO2 SLP168 T01280122
KFIG 020915Z AUTO 32005KT 10SM BKN013 13/12 A3002 RMK AO2 T01330122
KFIG 020854Z AUTO 32006KT 10SM SCT012 13/12 A3001 RMK AO2 SLP160 T01330122 52012
KFIG 020754Z AUTO 31008KT 10SM CLR 13/12 A3000 RMK AO2 SLP156 T01330122
KFIG 020701Z AUTO VRB04KT 5SM BR FEW003 13/12 A2999 RMK AO2 T01280122
KFIG 020659Z AUTO 00000KT 1 1/2SM BR FEW003 13/12 A2999 RMK AO2 T01280122
KFIG 020654Z AUTO VRB04KT 3/4SM BR VV003 12/12 A2999 RMK AO2 SLP149 T01220122
KFIG 020650Z AUTO VRB03KT 3/4SM BR VV003 12/12 A2998 RMK AO2
KFIG 020648Z AUTO 35004KT 1 1/2SM BR FEW003 12/12 A2998 RMK AO2
KFIG 020600Z AUTO 25003KT 4SM BR SCT003 13/13 A2997 RMK AO2 T01330133
KFIG 020554Z AUTO 25003KT 1 1/4SM BR SCT003 13/13 A2997 RMK AO2 VIS 1/2V5 SLP144 T01330133 10161 20128 50003
KFIG 020541Z AUTO 00000KT 3/4SM BR VV002 13/13 A2997 RMK AO2 T01330133
KFIG 020538Z AUTO 00000KT 1 1/2SM BR SCT002 13/13 A2997 RMK AO2 T01280128
KFIG 020454Z AUTO 00000KT 7SM FEW004 14/14 A2998 RMK AO2 SLP146 T01390139 402560117
KFIG 020447Z AUTO 00000KT 3SM BR SCT004 14/14 A2998 RMK AO2 T01390139
KFIG 020444Z AUTO 00000KT 1 1/2SM BR SCT004 14/14 A2998 RMK AO2 T01440144
KFIG 020437Z AUTO 00000KT 1/2SM FG VV003 14/14 A2998 RMK AO2 T01440144
KFIG 020426Z AUTO 00000KT 1 3/4SM BR BKN003 BKN070 14/14 A2997 RMK AO2 VIS 3/4V3 T01440144
KFIG 020415Z AUTO 00000KT 1/2SM FG BKN002 BKN070 14/14 A2997 RMK AO2 T01440144
KFIG 020354Z AUTO 00000KT 1/4SM FG BKN002 OVC090 15/15 A2997 RMK AO2 SLP143 T01500150
KFIG 020351Z AUTO 00000KT 1/2SM FG BKN002 OVC090 15/15 A2997 RMK AO2
KFIG 020345Z AUTO 00000KT 1 1/2SM BR SCT003 OVC090 15/15 A2997 RMK AO2 VIS 1/2V5 T01500150
KFIG 020310Z AUTO 00000KT 3SM BR SCT002 BKN100 15/15 A2997 RMK AO2 T01500150
KFIG 020306Z AUTO 00000KT 1SM BR SCT002 BKN100 15/15 A2997 RMK AO2 T01500150
KFIG 020254Z AUTO 24003KT 1/2SM FG VV002 15/15 A2997 RMK AO2 SLP141 T01500150 51022
KFIG 020251Z AUTO 23003KT 1 1/2SM BR BKN002 15/15 A2996 RMK AO2
KFIG 020243Z AUTO 22004KT 3SM BR SCT002 15/15 A2996 RMK AO2 T01500150
KFIG 020240Z AUTO 22004KT 1 1/4SM BR SCT002 15/15 A2996 RMK AO2 T01500150
KFIG 020231Z AUTO 22003KT 1/2SM FG VV002 16/16 A2996 RMK AO2 T01560156
KFIG 020224Z AUTO 00000KT 1SM BR VV002 16/15 A2996 RMK AO2 T01560150
KFIG 020221Z AUTO 22003KT 2 1/2SM BR FEW003 16/15 A2996 RMK AO2 T01560150
KFIG 020154Z AUTO 00000KT 8SM CLR 16/15 A2995 RMK AO2 SLP139 T01560150
KFIG 020054Z AUTO 00000KT 8SM CLR 17/16 A2993 RMK AO2 SLP131 T01670156
KFIG 012354Z AUTO 24003KT 10SM CLR 17/16 A2990 RMK AO2 SLP122 60018 T01720161 10256 20167 51005
KFIG 012254Z AUTO 24005KT 10SM CLR 18/16 A2990 RMK AO2 SLP121 T01830161
KFIG 012154Z AUTO 20004KT 10SM FEW065 BKN100 17/17 A2990 RMK AO2 RAE2057 SLP122 P0000 T01720167
KFIG 012054Z AUTO 00000KT 8SM -RA OVC090 17/17 A2988 RMK AO2 LTG DSNT E AND SE SLP116 P0006 60018 T01720167 53007
KFIG 012028Z AUTO 00000KT 5SM -RA BR BKN070 OVC090 17/16 A2989 RMK AO2 LTG DSNT E AND SE P0006 T01720161
KFIG 012002Z AUTO 32006G19KT 3SM VCTS RA BR FEW030 BKN043 OVC065 17/16 A2989 RMK AO2 LTG DSNT NE P0002 T01670156